Time;durP1;ratioP1;P1;durP2;ratioP2;P2;SDS_P1;SDS_P2;PMS_P1;PMS_P2;Temp;Humidity;BMP_temperature;BMP_pressure;BME280_temperature;BME280_humidity;BME280_pressure;Samples;Min_cycle;Max_cycle;Signal;HPM_P1;HPM_P2
2023/07/26 00:01:55;;;;;;;7.38;4.20;;;;;;;10.86;100.00;100986.63;10445235;28;20507;-74
2023/07/26 00:06:56;;;;;;;8.13;3.47;;;;;;;10.83;100.00;100989.09;10477110;28;20068;-73
2023/07/26 00:11:56;;;;;;;6.30;4.20;;;;;;;10.79;100.00;100983.63;10483943;28;20064;-73
2023/07/26 00:16:57;;;;;;;7.10;4.32;;;;;;;10.77;100.00;100985.28;10485565;28;20557;-74
2023/07/26 00:21:57;;;;;;;8.38;4.45;;;;;;;10.80;100.00;100988.94;10483052;28;20037;-74
2023/07/26 00:26:58;;;;;;;7.43;4.55;;;;;;;10.86;100.00;100994.47;10483633;28;20043;-73
2023/07/26 00:31:58;;;;;;;7.47;4.10;;;;;;;10.86;100.00;100991.84;10484319;28;20086;-73
2023/07/26 00:37:03;;;;;;;9.10;6.15;;;;;;;10.91;100.00;100988.56;10485776;28;20488;-74
2023/07/26 00:42:04;;;;;;;9.15;4.93;;;;;;;10.84;100.00;100987.38;10495334;28;20458;-73
2023/07/26 00:47:05;;;;;;;7.90;3.63;;;;;;;10.80;100.00;100988.06;10510165;28;20101;-73
2023/07/26 00:52:06;;;;;;;7.20;4.05;;;;;;;10.75;100.00;100992.16;10493706;28;20500;-73
2023/07/26 00:57:06;;;;;;;8.70;5.57;;;;;;;10.72;100.00;100987.66;10508355;28;20488;-73
2023/07/26 01:02:07;;;;;;;8.80;5.28;;;;;;;10.69;100.00;100987.50;10493163;28;20362;-75
2023/07/26 01:07:10;;;;;;;10.07;5.93;;;;;;;10.67;100.00;100982.22;10499030;28;20147;-76
2023/07/26 01:12:18;;;;;;;7.03;4.45;;;;;;;10.67;100.00;100983.91;10498865;28;20127;-73
2023/07/26 01:17:18;;;;;;;10.07;5.30;;;;;;;10.73;100.00;100981.59;10503344;28;20116;-73
2023/07/26 01:22:19;;;;;;;12.18;5.80;;;;;;;10.78;100.00;100976.59;10490866;28;20036;-74
2023/07/26 01:27:19;;;;;;;11.10;6.05;;;;;;;10.77;100.00;100978.31;10498803;28;20032;-74
2023/07/26 01:32:20;;;;;;;6.47;4.93;;;;;;;10.76;100.00;100980.88;10487967;28;20426;-74
2023/07/26 01:37:21;;;;;;;7.78;5.05;;;;;;;10.78;100.00;100974.00;10483450;28;20097;-74
2023/07/26 01:42:21;;;;;;;8.27;5.75;;;;;;;10.80;100.00;100970.59;10481078;28;20048;-74
2023/07/26 01:47:22;;;;;;;7.82;5.88;;;;;;;10.87;100.00;100962.22;10494148;28;20040;-73
2023/07/26 01:52:23;;;;;;;9.80;5.68;;;;;;;10.89;100.00;100969.25;10482448;28;20032;-74
2023/07/26 01:57:25;;;;;;;9.43;5.63;;;;;;;10.93;100.00;100968.56;10487722;28;20066;-74
2023/07/26 02:02:25;;;;;;;9.37;5.17;;;;;;;10.99;100.00;100969.78;10500272;28;20044;-73
2023/07/26 02:07:26;;;;;;;9.38;5.53;;;;;;;11.07;100.00;100971.88;10507798;28;20104;-74
2023/07/26 02:12:26;;;;;;;10.38;5.55;;;;;;;11.10;100.00;100967.66;10485655;28;20041;-74
2023/07/26 02:17:27;;;;;;;8.73;5.47;;;;;;;11.18;100.00;100977.59;10498423;28;20404;-74
2023/07/26 02:22:27;;;;;;;11.40;6.80;;;;;;;11.19;100.00;100980.31;10510941;28;20139;-75
2023/07/26 02:27:28;;;;;;;13.77;8.93;;;;;;;10.98;100.00;100996.78;10495932;28;20541;-74
2023/07/26 02:32:29;;;;;;;17.77;9.27;;;;;;;10.90;100.00;101007.72;10508973;28;20096;-75
2023/07/26 02:37:29;;;;;;;17.83;11.50;;;;;;;10.89;100.00;101006.81;10515821;28;20043;-74
2023/07/26 02:42:30;;;;;;;16.88;10.32;;;;;;;10.82;100.00;100984.66;10519594;28;20036;-74
2023/07/26 02:47:32;;;;;;;15.02;9.40;;;;;;;10.79;100.00;101001.97;10501442;28;20047;-74
2023/07/26 02:52:32;;;;;;;24.73;11.80;;;;;;;10.75;100.00;100993.03;10508401;28;20392;-74
2023/07/26 02:57:33;;;;;;;15.57;10.70;;;;;;;10.64;100.00;100994.25;10499746;28;20045;-73
2023/07/26 03:02:34;;;;;;;15.82;11.18;;;;;;;10.51;100.00;100992.75;10505443;28;20127;-74
2023/07/26 03:07:34;;;;;;;17.10;11.95;;;;;;;10.37;100.00;100998.16;10438247;28;20124;-73
2023/07/26 03:12:35;;;;;;;19.65;11.50;;;;;;;10.32;100.00;100990.88;10476055;28;20120;-74
2023/07/26 03:17:35;;;;;;;18.95;13.52;;;;;;;10.20;100.00;100997.28;10438083;28;20099;-74
2023/07/26 03:22:36;;;;;;;21.73;15.00;;;;;;;10.12;100.00;100996.00;10443868;28;20075;-74
2023/07/26 03:27:36;;;;;;;21.52;13.95;;;;;;;10.08;100.00;101002.78;10437864;28;20037;-73
2023/07/26 03:32:37;;;;;;;22.50;13.98;;;;;;;10.05;100.00;101000.03;10444459;28;20480;-74
2023/07/26 03:37:37;;;;;;;24.33;15.02;;;;;;;10.03;100.00;101000.75;10436497;28;20120;-74
2023/07/26 03:42:38;;;;;;;23.10;16.25;;;;;;;10.06;100.00;101001.81;10443106;28;20047;-74
2023/07/26 03:47:39;;;;;;;24.55;15.05;;;;;;;10.05;100.00;101002.63;10441607;28;20092;-74
2023/07/26 03:52:39;;;;;;;23.30;15.15;;;;;;;10.04;100.00;100992.09;10444871;28;20037;-74
2023/07/26 03:57:40;;;;;;;25.95;14.70;;;;;;;10.03;100.00;100995.50;10423552;28;20045;-74
2023/07/26 04:02:40;;;;;;;24.77;15.77;;;;;;;10.02;100.00;100997.25;10465172;28;20033;-74
2023/07/26 04:07:41;;;;;;;26.50;16.25;;;;;;;10.06;100.00;101000.91;10485587;28;20123;-75
2023/07/26 04:12:41;;;;;;;19.83;14.73;;;;;;;10.03;100.00;100998.13;10480438;28;20068;-73
2023/07/26 04:17:42;;;;;;;25.02;16.73;;;;;;;10.10;100.00;101014.22;10486469;28;20102;-74
2023/07/26 04:22:42;;;;;;;22.40;15.80;;;;;;;10.23;100.00;101007.91;10508430;28;20624;-73
2023/07/26 04:27:43;;;;;;;25.15;16.60;;;;;;;10.41;100.00;101008.00;10503825;28;20038;-74
2023/07/26 04:32:43;;;;;;;22.20;16.05;;;;;;;10.64;100.00;101008.25;10476757;28;20075;-74
2023/07/26 04:37:44;;;;;;;24.95;17.58;;;;;;;10.70;100.00;101003.31;10439847;28;20048;-74
2023/07/26 04:42:45;;;;;;;23.25;15.88;;;;;;;10.67;100.00;101005.78;10431326;28;20136;-74
2023/07/26 04:47:45;;;;;;;20.48;15.10;;;;;;;10.61;100.00;101000.22;10443808;28;20416;-73
2023/07/26 04:52:46;;;;;;;20.45;13.93;;;;;;;10.65;100.00;100999.56;10431402;28;20102;-74
2023/07/26 04:57:46;;;;;;;19.70;13.05;;;;;;;10.66;100.00;100996.13;10433957;28;20041;-75
2023/07/26 05:02:47;;;;;;;22.73;14.20;;;;;;;10.68;100.00;100996.19;10428713;28;20041;-73
2023/07/26 05:07:47;;;;;;;19.70;15.07;;;;;;;10.92;100.00;101001.75;10427179;28;20541;-73
2023/07/26 05:12:48;;;;;;;18.35;12.82;;;;;;;11.08;100.00;101003.34;10434082;28;20041;-74
2023/07/26 05:17:49;;;;;;;13.75;11.05;;;;;;;11.14;100.00;101002.78;10432541;28;20041;-75
2023/07/26 05:22:50;;;;;;;17.47;10.73;;;;;;;11.18;100.00;100998.56;10436693;28;20131;-74
2023/07/26 05:27:53;;;;;;;14.48;10.48;;;;;;;11.51;100.00;100998.34;10396476;28;20045;-73
2023/07/26 05:32:54;;;;;;;13.00;10.85;;;;;;;12.00;100.00;100997.06;10470296;28;20562;-73
2023/07/26 05:37:54;;;;;;;17.80;10.23;;;;;;;12.31;100.00;100995.78;10475240;28;20115;-73
2023/07/26 05:42:55;;;;;;;10.52;8.10;;;;;;;12.53;100.00;100988.78;10470678;28;20488;-73
2023/07/26 05:47:55;;;;;;;11.35;8.73;;;;;;;13.34;100.00;100993.78;10478652;28;20127;-74
2023/07/26 05:52:56;;;;;;;9.95;5.10;;;;;;;14.16;100.00;100971.28;10471474;28;20535;-73
2023/07/26 05:57:56;;;;;;;8.10;4.95;;;;;;;14.57;100.00;100957.75;10488346;28;20079;-74
2023/07/26 06:02:57;;;;;;;8.30;5.10;;;;;;;15.02;100.00;100919.66;10483075;28;20059;-74
2023/07/26 06:07:58;;;;;;;6.07;5.03;;;;;;;15.21;100.00;100898.25;10481823;28;20127;-74
2023/07/26 06:12:58;;;;;;;11.10;6.15;;;;;;;16.02;100.00;100903.13;10471454;28;20490;-74
2023/07/26 06:17:59;;;;;;;9.43;6.28;;;;;;;16.72;100.00;100910.09;10477649;28;20048;-74
2023/07/26 06:23:00;;;;;;;9.95;5.13;;;;;;;17.16;100.00;100912.88;10493667;28;20123;-74
2023/07/26 06:28:01;;;;;;;7.40;3.87;;;;;;;17.43;100.00;100916.97;10503722;28;20074;-75
2023/07/26 06:33:01;;;;;;;9.05;5.80;;;;;;;17.26;100.00;100937.75;10483704;28;20137;-76
2023/07/26 06:38:02;;;;;;;10.73;5.40;;;;;;;17.68;100.00;100937.69;10495822;28;20048;-74
2023/07/26 06:43:03;;;;;;;7.57;4.63;;;;;;;18.22;100.00;100940.47;10440672;28;20511;-74
2023/07/26 06:48:07;;;;;;;7.90;5.63;;;;;;;19.13;100.00;100946.31;10436407;28;20114;-75
2023/07/26 06:53:07;;;;;;;11.75;4.63;;;;;;;19.60;100.00;100955.78;10449147;28;20033;-74
2023/07/26 06:58:08;;;;;;;11.03;6.43;;;;;;;20.18;100.00;100965.28;10468683;28;20033;-74
2023/07/26 07:03:08;;;;;;;10.47;6.23;;;;;;;20.64;100.00;100980.72;10472167;28;20036;-74
2023/07/26 07:08:09;;;;;;;13.77;7.60;;;;;;;20.71;100.00;100998.50;10485487;28;20543;-76
2023/07/26 07:13:09;;;;;;;10.23;5.90;;;;;;;19.76;100.00;100983.38;10478926;28;20040;-74
2023/07/26 07:18:10;;;;;;;12.80;7.17;;;;;;;19.61;100.00;100992.06;10482311;28;20067;-73
2023/07/26 07:23:10;;;;;;;16.43;7.03;;;;;;;20.24;100.00;100998.09;10514443;28;20407;-74
2023/07/26 07:28:11;;;;;;;12.40;6.87;;;;;;;20.33;100.00;101002.63;10489355;28;20037;-75
2023/07/26 07:33:11;;;;;;;12.53;8.07;;;;;;;19.88;100.00;100999.47;10485885;28;20380;-75
2023/07/26 07:38:12;;;;;;;12.10;7.43;;;;;;;19.03;100.00;101003.69;10498773;28;20044;-75
2023/07/26 07:43:12;;;;;;;18.47;8.80;;;;;;;18.02;100.00;101016.06;10508320;28;20054;-78
2023/07/26 07:48:13;;;;;;;21.50;9.65;;;;;;;17.50;100.00;101010.56;10501847;28;20074;-75
2023/07/26 07:53:13;;;;;;;16.25;7.45;;;;;;;17.92;100.00;101019.38;10494674;28;20047;-74
2023/07/26 07:58:14;;;;;;;13.23;8.18;;;;;;;18.62;100.00;101012.72;10505764;28;20468;-74
2023/07/26 08:03:15;;;;;;;16.52;9.00;;;;;;;18.28;100.00;101018.31;10510648;28;20060;-74
2023/07/26 08:08:15;;;;;;;12.73;7.20;;;;;;;18.26;100.00;101027.09;10507420;28;20119;-75
2023/07/26 08:13:16;;;;;;;20.23;7.72;;;;;;;19.60;100.00;101012.41;10496402;28;20036;-75
2023/07/26 08:18:16;;;;;;;13.10;7.65;;;;;;;19.41;100.00;101028.97;10501383;28;20075;-74
2023/07/26 08:23:17;;;;;;;12.37;7.40;;;;;;;20.31;100.00;101028.28;10497466;28;20044;-74
2023/07/26 08:28:17;;;;;;;12.30;8.27;;;;;;;19.90;100.00;101039.38;10493901;28;20051;-74
2023/07/26 08:33:18;;;;;;;12.10;7.63;;;;;;;19.10;100.00;101032.06;10488807;28;20037;-73
2023/07/26 08:38:18;;;;;;;11.90;6.55;;;;;;;21.18;100.00;101039.66;10483326;28;20044;-78
2023/07/26 08:43:19;;;;;;;13.37;7.33;;;;;;;22.23;100.00;101044.56;10432462;28;20037;-75
2023/07/26 08:48:19;;;;;;;12.47;7.37;;;;;;;20.75;100.00;101029.56;10406054;28;20068;-74
2023/07/26 08:53:20;;;;;;;16.30;7.70;;;;;;;20.15;100.00;101029.00;10423328;28;20444;-74
2023/07/26 08:58:20;;;;;;;14.53;7.00;;;;;;;20.54;100.00;101035.59;10448764;28;20041;-74
2023/07/26 09:03:21;;;;;;;16.43;6.77;;;;;;;22.59;100.00;101037.53;10395046;28;20040;-74
2023/07/26 09:08:21;;;;;;;10.27;6.27;;;;;;;24.02;100.00;101039.94;10414925;28;20070;-74
2023/07/26 09:13:22;;;;;;;7.50;4.93;;;;;;;25.51;100.00;101027.13;10434383;28;20025;-74
2023/07/26 09:18:23;;;;;;;10.43;4.90;;;;;;;25.35;88.69;101023.69;10441777;28;20033;-74
2023/07/26 09:23:23;;;;;;;18.50;5.23;;;;;;;22.78;100.00;101021.53;10428779;28;20167;-74
2023/07/26 09:28:24;;;;;;;10.20;6.13;;;;;;;20.08;100.00;101020.06;10429469;28;20047;-75
2023/07/26 09:33:27;;;;;;;13.27;6.13;;;;;;;18.60;100.00;101017.09;10436790;28;20028;-74
2023/07/26 09:38:27;;;;;;;11.07;4.82;;;;;;;22.72;100.00;101014.44;10431485;28;20480;-74
2023/07/26 09:43:32;;;;;;;10.97;6.10;;;;;;;23.39;100.00;101021.47;10418809;28;20063;-75
2023/07/26 09:48:32;;;;;;;9.80;5.38;;;;;;;21.26;100.00;101024.66;10409317;28;20048;-75
2023/07/26 09:53:33;;;;;;;10.73;5.67;;;;;;;20.72;100.00;101026.00;10436757;28;20180;-75
2023/07/26 09:58:37;;;;;;;9.23;4.53;;;;;;;21.06;100.00;101021.84;10435314;28;20044;-75
2023/07/26 10:03:38;;;;;;;9.27;5.88;;;;;;;20.22;100.00;101023.75;10432466;28;20041;-75
2023/07/26 10:08:41;;;;;;;9.38;4.80;;;;;;;19.49;100.00;101022.00;10407871;28;20091;-76
2023/07/26 10:13:42;;;;;;;5.32;3.65;;;;;;;21.87;100.00;101010.75;10429765;28;20473;-76
2023/07/26 10:18:42;;;;;;;7.13;4.40;;;;;;;24.29;100.00;101015.72;10434089;28;20044;-76
2023/07/26 10:23:43;;;;;;;6.10;4.47;;;;;;;24.74;87.36;101010.03;10417139;28;20041;-77
2023/07/26 10:28:43;;;;;;;8.73;5.23;;;;;;;22.12;100.00;101001.03;10439220;28;20485;-76
2023/07/26 10:33:45;;;;;;;8.70;3.93;;;;;;;21.97;100.00;101010.75;10431627;28;20045;-76
2023/07/26 10:38:49;;;;;;;8.88;5.22;;;;;;;25.31;86.46;100995.16;10444319;28;20033;-77
2023/07/26 10:43:49;;;;;;;6.28;3.83;;;;;;;26.17;79.56;100990.53;10426377;28;20120;-77
2023/07/26 10:48:51;;;;;;;6.37;3.90;;;;;;;25.16;74.68;101006.97;10447732;28;20366;-76
2023/07/26 10:53:54;;;;;;;19.15;4.82;;;;;;;22.54;88.43;101001.13;10443680;28;20037;-76
2023/07/26 10:58:56;;;;;;;6.38;3.22;;;;;;;21.07;100.00;100997.00;10437212;28;20103;-76
2023/07/26 11:03:59;;;;;;;9.40;4.68;;;;;;;23.52;100.00;100998.28;10441588;28;20041;-77
2023/07/26 11:09:00;;;;;;;8.52;4.38;;;;;;;26.01;73.63;101000.53;10429491;28;20075;-77
2023/07/26 11:14:00;;;;;;;6.27;3.87;;;;;;;26.98;64.00;101007.97;10420945;28;20036;-76
2023/07/26 11:19:01;;;;;;;9.37;4.07;;;;;;;26.65;68.40;101007.63;10479369;28;20166;-77
2023/07/26 11:24:02;;;;;;;5.67;3.23;;;;;;;26.59;67.13;101000.56;10446866;28;20094;-77
2023/07/26 11:29:03;;;;;;;5.65;3.70;;;;;;;27.08;64.68;101009.59;10412136;28;20040;-76
2023/07/26 11:34:16;;;;;;;8.00;4.37;;;;;;;25.61;65.22;101014.50;10444899;28;20079;-75
2023/07/26 11:39:26;;;;;;;5.75;3.22;;;;;;;24.75;65.30;101011.81;10463675;28;20150;-77
2023/07/26 11:44:27;;;;;;;6.10;3.83;;;;;;;23.75;68.86;101017.75;10461831;28;20117;-77
2023/07/26 11:49:27;;;;;;;6.33;3.10;;;;;;;23.79;77.10;101024.00;10461995;28;20037;-77
2023/07/26 11:54:28;;;;;;;4.73;2.30;;;;;;;22.14;72.44;101021.47;10465288;28;20127;-76
2023/07/26 11:59:28;;;;;;;3.63;2.50;;;;;;;22.12;84.65;101015.25;10449102;28;20044;-76
2023/07/26 12:04:29;;;;;;;5.30;2.70;;;;;;;22.05;83.52;101040.09;10448637;28;20054;-76
2023/07/26 12:09:29;;;;;;;4.60;2.97;;;;;;;20.67;81.63;101045.47;10468150;28;20115;-76
2023/07/26 12:14:31;;;;;;;4.70;3.10;;;;;;;21.93;75.58;101050.72;10453520;28;20051;-76
2023/07/26 12:19:32;;;;;;;6.88;2.22;;;;;;;23.29;72.20;101031.28;10482340;28;20116;-76
2023/07/26 12:24:33;;;;;;;5.80;3.50;;;;;;;25.17;67.94;101030.16;10493592;28;20373;-76
2023/07/26 12:29:38;;;;;;;6.50;2.30;;;;;;;25.94;56.38;101029.25;10484145;28;20036;-76
2023/07/26 12:34:41;;;;;;;5.95;3.55;;;;;;;26.09;57.64;101022.78;10507591;28;20028;-76
2023/07/26 12:39:45;;;;;;;8.50;3.65;;;;;;;25.95;59.69;101027.44;10482509;28;20040;-76
2023/07/26 12:44:45;;;;;;;6.70;3.72;;;;;;;26.58;59.53;101020.25;10509297;28;20131;-76
2023/07/26 12:49:46;;;;;;;7.50;4.67;;;;;;;26.94;60.68;101019.69;10505112;28;20036;-76
2023/07/26 12:54:46;;;;;;;12.80;3.67;;;;;;;26.94;60.13;101012.50;10501696;28;20401;-75
2023/07/26 12:59:47;;;;;;;4.73;3.37;;;;;;;26.17;58.95;101011.97;10491141;28;20128;-78
2023/07/26 13:04:47;;;;;;;3.97;2.43;;;;;;;24.19;65.41;101018.47;10508695;28;20062;-78
2023/07/26 13:09:48;;;;;;;5.10;2.60;;;;;;;23.66;63.99;101025.81;10444814;28;20135;-77
2023/07/26 13:14:48;;;;;;;4.83;2.60;;;;;;;22.96;64.89;101019.75;10438872;28;20037;-77
2023/07/26 13:19:54;;;;;;;3.80;2.50;;;;;;;22.85;68.19;101025.09;10440880;28;20041;-76
2023/07/26 13:24:57;;;;;;;4.28;2.15;;;;;;;23.52;63.88;101009.88;10428195;28;20140;-76
2023/07/26 13:29:58;;;;;;;5.75;2.47;;;;;;;25.09;54.88;101015.97;10423966;28;20041;-78
2023/07/26 13:34:59;;;;;;;3.07;1.23;;;;;;;26.33;54.66;101009.94;10420910;28;20497;-77
2023/07/26 13:39:59;;;;;;;4.80;2.47;;;;;;;25.99;48.34;101015.78;10441137;28;20040;-76
2023/07/26 13:45:01;;;;;;;6.60;1.60;;;;;;;24.18;56.83;101015.78;10439771;28;20441;-76
2023/07/26 13:50:02;;;;;;;;;;;;;;;24.18;55.71;101014.00;10433718;28;20489;-76
2023/07/26 13:55:02;;;;;;;4.00;1.80;;;;;;;25.16;60.42;101015.88;10439697;28;19974;-77
2023/07/26 14:00:04;;;;;;;4.13;1.47;;;;;;;24.85;52.42;101026.88;10439399;28;20068;-78
2023/07/26 14:05:04;;;;;;;3.57;2.10;;;;;;;22.90;58.44;101036.66;10437778;28;20405;-74
2023/07/26 14:10:05;;;;;;;3.00;1.87;;;;;;;25.00;55.71;101027.63;10431368;28;20036;-74
2023/07/26 14:15:06;;;;;;;9.90;3.00;;;;;;;25.44;54.71;101036.13;10462126;28;20066;-77
2023/07/26 14:20:07;;;;;;;5.20;3.30;;;;;;;25.54;53.08;101036.91;10521498;28;20041;-76
2023/07/26 14:25:08;;;;;;;5.17;3.73;;;;;;;25.98;53.34;101026.53;10515409;28;20396;-76
2023/07/26 14:30:09;;;;;;;5.80;2.53;;;;;;;26.21;54.01;101028.91;10506356;28;20439;-76
2023/07/26 14:35:09;;;;;;;3.35;2.20;;;;;;;25.86;50.50;101022.22;10505928;28;20073;-76
2023/07/26 14:40:10;;;;;;;6.67;2.77;;;;;;;25.39;52.45;101033.47;10510791;28;20536;-76
2023/07/26 14:45:11;;;;;;;4.53;2.33;;;;;;;25.18;52.97;101040.84;10505166;28;20032;-75
2023/07/26 14:50:11;;;;;;;6.77;2.70;;;;;;;25.05;49.77;101040.09;10483742;28;20052;-77
2023/07/26 14:55:12;;;;;;;5.43;2.40;;;;;;;25.04;52.64;101037.41;10448189;28;20053;-75
2023/07/26 15:00:13;;;;;;;5.23;2.40;;;;;;;24.73;53.75;101035.91;10471827;28;20037;-74
2023/07/26 15:05:13;;;;;;;6.33;2.07;;;;;;;24.97;57.48;101036.59;10486289;28;20415;-74
2023/07/26 15:10:14;;;;;;;4.80;2.50;;;;;;;25.03;54.62;101036.53;10501580;28;20046;-74
2023/07/26 15:15:15;;;;;;;3.63;2.53;;;;;;;23.35;54.31;101033.06;10505160;28;20153;-75
2023/07/26 15:20:16;;;;;;;4.57;2.42;;;;;;;21.93;57.79;101030.28;10509281;28;20044;-76
2023/07/26 15:25:16;;;;;;;7.00;3.13;;;;;;;21.10;65.59;101030.75;10502301;28;20037;-75
2023/07/26 15:30:17;;;;;;;5.77;2.83;;;;;;;21.39;63.02;101030.91;10503394;28;20043;-74
2023/07/26 15:35:17;;;;;;;6.03;3.28;;;;;;;21.05;66.91;101030.69;10491861;28;20580;-75
2023/07/26 15:40:18;;;;;;;5.30;3.55;;;;;;;20.94;66.84;101032.41;10509213;28;20060;-75
2023/07/26 15:45:18;;;;;;;3.88;2.05;;;;;;;20.28;74.42;101027.34;10503814;28;20043;-75
2023/07/26 15:50:19;;;;;;;4.95;2.70;;;;;;;20.55;77.48;101018.78;10516628;28;20479;-75
2023/07/26 15:55:19;;;;;;;4.53;2.42;;;;;;;20.57;73.21;101022.34;10501472;28;20528;-75
2023/07/26 16:00:20;;;;;;;8.27;3.00;;;;;;;20.89;74.69;101023.50;10501998;28;20047;-74
2023/07/26 16:05:21;;;;;;;5.85;3.38;;;;;;;20.56;71.42;101017.00;10509390;28;20067;-75
2023/07/26 16:10:21;;;;;;;4.40;2.63;;;;;;;20.13;72.80;101021.00;10468777;28;20044;-75
2023/07/26 16:15:22;;;;;;;6.47;4.97;;;;;;;20.18;77.84;101006.00;10484385;28;20101;-74
2023/07/26 16:20:22;;;;;;;6.40;4.07;;;;;;;20.03;76.93;101014.72;10484286;28;20157;-74
2023/07/26 16:25:23;;;;;;;6.90;2.45;;;;;;;19.94;88.33;101004.88;10437746;28;20048;-74
2023/07/26 16:30:23;;;;;;;4.53;3.08;;;;;;;19.59;94.21;101013.28;10449796;28;20505;-74
2023/07/26 16:35:24;;;;;;;8.23;3.38;;;;;;;19.37;85.08;101001.50;10433439;28;20036;-77
2023/07/26 16:40:24;;;;;;;7.93;4.97;;;;;;;19.35;87.95;101008.56;10447909;28;20056;-75
2023/07/26 16:45:25;;;;;;;10.13;3.58;;;;;;;19.20;89.08;100998.59;10441176;28;20033;-75
2023/07/26 16:50:26;;;;;;;4.88;2.55;;;;;;;19.10;90.75;100999.34;10441392;28;20041;-75
2023/07/26 16:55:26;;;;;;;8.30;3.97;;;;;;;19.38;93.52;100992.66;10443634;28;20037;-75
2023/07/26 17:00:27;;;;;;;9.90;3.10;;;;;;;19.71;90.16;100996.63;10443111;28;20056;-73
2023/07/26 17:05:27;;;;;;;5.15;3.70;;;;;;;19.46;89.06;101004.28;10409631;28;20036;-74
2023/07/26 17:10:28;;;;;;;5.25;2.72;;;;;;;19.28;93.36;101007.56;10427321;28;20052;-76
2023/07/26 17:15:28;;;;;;;7.97;3.35;;;;;;;19.31;93.64;100999.63;10442416;28;20029;-74
2023/07/26 17:20:29;;;;;;;7.60;3.13;;;;;;;19.33;91.99;100997.03;10440542;28;20060;-74
2023/07/26 17:25:29;;;;;;;7.65;3.22;;;;;;;19.06;93.32;100994.00;10428944;28;20428;-73
2023/07/26 17:30:30;;;;;;;5.32;3.50;;;;;;;18.69;100.00;100998.69;10439774;28;20041;-74
2023/07/26 17:35:31;;;;;;;6.03;3.13;;;;;;;18.53;100.00;101004.59;10439222;28;20384;-74
2023/07/26 17:40:35;;;;;;;5.82;3.30;;;;;;;18.52;100.00;101008.13;10423792;28;20132;-74
2023/07/26 17:45:35;;;;;;;5.20;2.95;;;;;;;18.65;100.00;100999.50;10439427;28;20036;-74
2023/07/26 17:50:36;;;;;;;4.90;3.05;;;;;;;18.60;100.00;100987.94;10435361;28;20393;-74
2023/07/26 17:55:37;;;;;;;4.32;2.45;;;;;;;18.34;100.00;100991.94;10441071;28;20072;-74
2023/07/26 18:00:38;;;;;;;5.65;2.42;;;;;;;17.98;100.00;100984.16;10440477;28;20069;-74
2023/07/26 18:05:38;;;;;;;6.95;3.40;;;;;;;17.67;100.00;100973.88;10441153;28;20144;-74
2023/07/26 18:10:39;;;;;;;16.63;3.63;;;;;;;17.54;100.00;100977.13;10440930;28;20044;-74
2023/07/26 18:15:39;;;;;;;7.53;2.55;;;;;;;17.48;100.00;100982.31;10440523;28;20045;-73
2023/07/26 18:20:40;;;;;;;8.55;3.20;;;;;;;17.36;100.00;100985.56;10434539;28;20057;-75
2023/07/26 18:25:43;;;;;;;4.32;2.50;;;;;;;17.18;100.00;100994.88;10439614;28;20501;-74
2023/07/26 18:30:43;;;;;;;7.57;3.35;;;;;;;17.01;100.00;100995.38;10436806;28;20679;-74
2023/07/26 18:35:44;;;;;;;8.65;3.45;;;;;;;16.87;100.00;101002.06;10428744;28;20040;-74
2023/07/26 18:40:44;;;;;;;6.47;3.25;;;;;;;16.72;100.00;101005.25;10440204;28;20365;-73
2023/07/26 18:45:45;;;;;;;10.23;4.72;;;;;;;16.61;100.00;101001.44;10435922;28;20044;-74
2023/07/26 18:50:46;;;;;;;7.10;3.90;;;;;;;16.49;100.00;100996.72;10439246;28;20041;-74
2023/07/26 18:55:47;;;;;;;8.60;4.45;;;;;;;16.32;100.00;101007.75;10441586;28;20505;-74
2023/07/26 19:00:47;;;;;;;11.38;4.25;;;;;;;16.18;100.00;101004.75;10485308;28;20036;-74
2023/07/26 19:05:48;;;;;;;8.80;3.20;;;;;;;16.03;100.00;100999.94;10459502;28;20507;-74
2023/07/26 19:10:49;;;;;;;9.00;4.32;;;;;;;15.89;100.00;101017.13;10469112;28;20492;-74
2023/07/26 19:15:56;;;;;;;5.57;3.38;;;;;;;15.72;100.00;101020.16;10461677;28;20053;-74
2023/07/26 19:21:00;;;;;;;11.90;4.88;;;;;;;15.55;100.00;101024.94;10445244;28;20088;-74
2023/07/26 19:26:01;;;;;;;9.38;5.53;;;;;;;15.36;100.00;101018.22;10445703;28;20503;-74
2023/07/26 19:31:02;;;;;;;7.97;3.97;;;;;;;15.17;100.00;101020.28;10453463;28;20033;-74
2023/07/26 19:36:03;;;;;;;7.90;4.03;;;;;;;15.05;100.00;101006.72;10460253;28;20511;-74
2023/07/26 19:41:15;;;;;;;6.15;4.97;;;;;;;15.08;100.00;101023.53;10467509;28;20124;-74
2023/07/26 19:46:16;;;;;;;13.13;6.15;;;;;;;15.04;100.00;101021.66;10444353;28;20116;-74
2023/07/26 19:51:17;;;;;;;4.85;3.25;;;;;;;15.08;100.00;101027.91;10470031;28;20049;-74
2023/07/26 19:56:18;;;;;;;8.50;4.67;;;;;;;15.02;100.00;101014.53;10459262;28;20103;-74
2023/07/26 20:01:18;;;;;;;10.75;4.32;;;;;;;14.93;100.00;101017.78;10470928;28;20048;-74
2023/07/26 20:06:19;;;;;;;9.05;5.38;;;;;;;14.74;100.00;101011.00;10458852;28;20083;-74
2023/07/26 20:11:19;;;;;;;10.05;4.68;;;;;;;14.65;100.00;101009.81;10446009;28;20060;-74
2023/07/26 20:16:20;;;;;;;9.27;4.45;;;;;;;14.59;100.00;101020.16;10459610;28;20119;-74
2023/07/26 20:21:21;;;;;;;7.10;4.05;;;;;;;14.56;100.00;101017.41;10466055;28;20036;-74
2023/07/26 20:26:22;;;;;;;7.40;4.55;;;;;;;14.59;100.00;101011.38;10460692;28;20435;-74
2023/07/26 20:31:22;;;;;;;6.70;4.85;;;;;;;14.55;100.00;101015.63;10469361;28;20115;-74
2023/07/26 20:36:23;;;;;;;9.02;4.97;;;;;;;14.37;100.00;101008.00;10457034;28;20119;-74
2023/07/26 20:41:23;;;;;;;8.70;4.60;;;;;;;14.31;100.00;101008.69;10490791;28;20163;-74
2023/07/26 20:46:25;;;;;;;13.27;5.40;;;;;;;14.27;100.00;101016.44;10453412;28;20037;-74
2023/07/26 20:51:25;;;;;;;9.05;4.60;;;;;;;14.23;100.00;101015.41;10442243;28;20790;-75
2023/07/26 20:56:26;;;;;;;7.43;5.05;;;;;;;14.19;100.00;100998.63;10440424;28;20041;-75
2023/07/26 21:01:27;;;;;;;6.72;4.63;;;;;;;14.20;100.00;100994.25;10440288;28;20067;-75
2023/07/26 21:06:27;;;;;;;8.82;5.10;;;;;;;14.25;100.00;100995.31;10443041;28;20040;-75
2023/07/26 21:11:28;;;;;;;7.22;4.05;;;;;;;14.27;100.00;100988.34;10438468;28;20035;-75
2023/07/26 21:16:28;;;;;;;10.13;5.53;;;;;;;14.27;100.00;100982.22;10443149;28;20072;-75
2023/07/26 21:21:29;;;;;;;12.27;4.55;;;;;;;14.24;100.00;100976.00;10436316;28;20103;-74
2023/07/26 21:26:29;;;;;;;10.60;4.22;;;;;;;14.23;100.00;100968.94;10467032;28;20074;-74
2023/07/26 21:31:30;;;;;;;8.27;5.43;;;;;;;14.24;100.00;100968.09;10509982;28;20105;-74
2023/07/26 21:36:31;;;;;;;12.15;6.13;;;;;;;14.22;100.00;100963.59;10492132;28;20075;-74
2023/07/26 21:41:32;;;;;;;11.93;5.63;;;;;;;14.23;100.00;100961.03;10494344;28;20424;-74
2023/07/26 21:46:32;;;;;;;15.13;5.45;;;;;;;14.21;100.00;100960.09;10479875;28;20127;-74
2023/07/26 21:51:34;;;;;;;7.40;5.15;;;;;;;14.15;100.00;100954.63;10492680;28;20036;-73
2023/07/26 21:56:34;;;;;;;5.70;3.58;;;;;;;14.12;100.00;100951.88;10479228;28;20047;-74
2023/07/26 22:01:35;;;;;;;7.60;5.10;;;;;;;14.02;100.00;100948.03;10482966;28;20072;-73
2023/07/26 22:06:36;;;;;;;9.82;6.38;;;;;;;13.94;100.00;100941.59;10436589;28;20064;-74
2023/07/26 22:11:36;;;;;;;10.20;5.53;;;;;;;13.91;100.00;100941.50;10437380;28;20053;-75
2023/07/26 22:16:46;;;;;;;13.32;6.03;;;;;;;13.87;100.00;100937.88;10438863;28;20119;-74
2023/07/26 22:21:47;;;;;;;8.73;5.40;;;;;;;13.85;100.00;100946.53;10456169;28;20052;-74
2023/07/26 22:26:48;;;;;;;9.43;6.32;;;;;;;13.78;100.00;100927.91;10455375;28;20047;-74
2023/07/26 22:31:49;;;;;;;10.88;4.57;;;;;;;13.76;100.00;100916.44;10459090;28;20037;-74
2023/07/26 22:36:50;;;;;;;13.90;5.53;;;;;;;13.75;100.00;100908.50;10464788;28;20598;-75
2023/07/26 22:41:50;;;;;;;8.13;4.70;;;;;;;13.70;100.00;100900.44;10457797;28;20040;-74